sensor_id;sensor_type;location;lat;lon;timestamp;P1;durP1;ratioP1;P2;durP2;ratioP2
2674;SDS011;1347;42.122;24.746;2023-03-14T00:00:56;7.70;;;4.73;;
2674;SDS011;1347;42.122;24.746;2023-03-14T00:03:23;6.30;;;4.53;;
2674;SDS011;1347;42.122;24.746;2023-03-14T00:05:50;5.10;;;4.20;;
2674;SDS011;1347;42.122;24.746;2023-03-14T00:08:17;12.00;;;4.70;;
2674;SDS011;1347;42.122;24.746;2023-03-14T00:10:46;6.47;;;4.67;;
2674;SDS011;1347;42.122;24.746;2023-03-14T00:13:14;44.47;;;26.53;;
2674;SDS011;1347;42.122;24.746;2023-03-14T00:15:41;29.77;;;18.57;;
2674;SDS011;1347;42.122;24.746;2023-03-14T00:18:08;20.97;;;13.70;;
2674;SDS011;1347;42.122;24.746;2023-03-14T00:20:35;14.13;;;7.40;;
2674;SDS011;1347;42.122;24.746;2023-03-14T00:23:02;12.17;;;8.00;;
2674;SDS011;1347;42.122;24.746;2023-03-14T00:25:29;12.90;;;7.30;;
2674;SDS011;1347;42.122;24.746;2023-03-14T00:27:56;12.13;;;7.10;;
2674;SDS011;1347;42.122;24.746;2023-03-14T00:30:24;13.50;;;8.20;;
2674;SDS011;1347;42.122;24.746;2023-03-14T00:32:51;13.07;;;7.70;;
2674;SDS011;1347;42.122;24.746;2023-03-14T00:35:17;12.03;;;6.20;;
2674;SDS011;1347;42.122;24.746;2023-03-14T00:37:44;7.93;;;5.90;;
2674;SDS011;1347;42.122;24.746;2023-03-14T00:40:11;7.90;;;6.63;;
2674;SDS011;1347;42.122;24.746;2023-03-14T00:42:39;10.30;;;6.60;;
2674;SDS011;1347;42.122;24.746;2023-03-14T00:45:06;8.20;;;6.13;;
2674;SDS011;1347;42.122;24.746;2023-03-14T00:47:36;7.10;;;6.27;;
2674;SDS011;1347;42.122;24.746;2023-03-14T00:50:03;10.30;;;7.00;;
2674;SDS011;1347;42.122;24.746;2023-03-14T00:52:31;8.73;;;6.27;;
2674;SDS011;1347;42.122;24.746;2023-03-14T00:54:58;7.40;;;6.10;;
2674;SDS011;1347;42.122;24.746;2023-03-14T00:57:25;8.90;;;6.03;;
2674;SDS011;1347;42.122;24.746;2023-03-14T00:59:52;9.10;;;5.93;;
2674;SDS011;1347;42.122;24.746;2023-03-14T01:02:19;10.80;;;6.30;;
2674;SDS011;1347;42.122;24.746;2023-03-14T01:04:48;9.00;;;6.10;;
2674;SDS011;1347;42.122;24.746;2023-03-14T01:07:15;9.73;;;7.33;;
2674;SDS011;1347;42.122;24.746;2023-03-14T01:09:42;10.97;;;6.50;;
2674;SDS011;1347;42.122;24.746;2023-03-14T01:12:09;10.00;;;7.70;;
2674;SDS011;1347;42.122;24.746;2023-03-14T01:14:36;9.03;;;6.77;;
2674;SDS011;1347;42.122;24.746;2023-03-14T01:17:03;8.73;;;7.30;;
2674;SDS011;1347;42.122;24.746;2023-03-14T01:19:30;9.97;;;6.87;;
2674;SDS011;1347;42.122;24.746;2023-03-14T01:21:58;7.33;;;5.93;;
2674;SDS011;1347;42.122;24.746;2023-03-14T01:24:25;7.00;;;6.30;;
2674;SDS011;1347;42.122;24.746;2023-03-14T01:26:51;16.53;;;8.27;;
2674;SDS011;1347;42.122;24.746;2023-03-14T01:29:18;11.90;;;7.63;;
2674;SDS011;1347;42.122;24.746;2023-03-14T01:31:45;9.70;;;6.43;;
2674;SDS011;1347;42.122;24.746;2023-03-14T01:34:12;11.20;;;7.93;;
2674;SDS011;1347;42.122;24.746;2023-03-14T01:36:39;11.03;;;7.83;;
2674;SDS011;1347;42.122;24.746;2023-03-14T01:39:07;10.30;;;8.03;;
2674;SDS011;1347;42.122;24.746;2023-03-14T01:41:34;11.03;;;7.90;;
2674;SDS011;1347;42.122;24.746;2023-03-14T01:44:01;10.33;;;7.80;;
2674;SDS011;1347;42.122;24.746;2023-03-14T01:46:35;12.50;;;7.17;;
2674;SDS011;1347;42.122;24.746;2023-03-14T01:49:07;11.30;;;7.50;;
2674;SDS011;1347;42.122;24.746;2023-03-14T01:51:47;7.83;;;7.03;;
2674;SDS011;1347;42.122;24.746;2023-03-14T01:54:21;10.50;;;7.60;;
2674;SDS011;1347;42.122;24.746;2023-03-14T01:56:55;9.60;;;8.00;;
2674;SDS011;1347;42.122;24.746;2023-03-14T01:59:26;12.50;;;8.33;;
2674;SDS011;1347;42.122;24.746;2023-03-14T02:01:56;12.80;;;8.97;;
2674;SDS011;1347;42.122;24.746;2023-03-14T02:04:24;15.80;;;8.90;;
2674;SDS011;1347;42.122;24.746;2023-03-14T02:06:56;12.33;;;8.30;;
2674;SDS011;1347;42.122;24.746;2023-03-14T02:09:31;13.90;;;9.37;;
2674;SDS011;1347;42.122;24.746;2023-03-14T02:11:58;12.70;;;8.93;;
2674;SDS011;1347;42.122;24.746;2023-03-14T02:14:28;9.87;;;8.03;;
2674;SDS011;1347;42.122;24.746;2023-03-14T02:16:57;11.87;;;8.57;;
2674;SDS011;1347;42.122;24.746;2023-03-14T02:19:29;14.17;;;7.93;;
2674;SDS011;1347;42.122;24.746;2023-03-14T02:22:05;9.73;;;7.47;;
2674;SDS011;1347;42.122;24.746;2023-03-14T02:24:39;15.37;;;9.13;;
2674;SDS011;1347;42.122;24.746;2023-03-14T02:27:13;11.63;;;8.50;;
2674;SDS011;1347;42.122;24.746;2023-03-14T02:29:43;13.67;;;9.40;;
2674;SDS011;1347;42.122;24.746;2023-03-14T02:32:15;12.43;;;9.03;;
2674;SDS011;1347;42.122;24.746;2023-03-14T02:34:44;19.50;;;10.03;;
2674;SDS011;1347;42.122;24.746;2023-03-14T02:37:16;14.70;;;8.97;;
2674;SDS011;1347;42.122;24.746;2023-03-14T02:39:46;14.83;;;9.20;;
2674;SDS011;1347;42.122;24.746;2023-03-14T02:42:15;11.17;;;8.20;;
2674;SDS011;1347;42.122;24.746;2023-03-14T02:44:49;10.10;;;7.90;;
2674;SDS011;1347;42.122;24.746;2023-03-14T02:47:19;14.33;;;8.63;;
2674;SDS011;1347;42.122;24.746;2023-03-14T02:49:48;10.90;;;8.10;;
2674;SDS011;1347;42.122;24.746;2023-03-14T02:52:17;12.10;;;8.80;;
2674;SDS011;1347;42.122;24.746;2023-03-14T02:54:44;12.30;;;8.40;;
2674;SDS011;1347;42.122;24.746;2023-03-14T02:57:11;12.50;;;8.83;;
2674;SDS011;1347;42.122;24.746;2023-03-14T02:59:39;14.20;;;9.03;;
2674;SDS011;1347;42.122;24.746;2023-03-14T03:02:06;12.53;;;10.73;;
2674;SDS011;1347;42.122;24.746;2023-03-14T03:04:33;19.40;;;10.50;;
2674;SDS011;1347;42.122;24.746;2023-03-14T03:07:00;11.80;;;9.23;;
2674;SDS011;1347;42.122;24.746;2023-03-14T03:09:26;11.50;;;8.83;;
2674;SDS011;1347;42.122;24.746;2023-03-14T03:11:53;15.63;;;11.27;;
2674;SDS011;1347;42.122;24.746;2023-03-14T03:14:20;16.20;;;10.00;;
2674;SDS011;1347;42.122;24.746;2023-03-14T03:16:48;15.37;;;10.07;;
2674;SDS011;1347;42.122;24.746;2023-03-14T03:19:15;13.57;;;10.10;;
2674;SDS011;1347;42.122;24.746;2023-03-14T03:21:42;12.87;;;9.80;;
2674;SDS011;1347;42.122;24.746;2023-03-14T03:24:10;16.20;;;11.13;;
2674;SDS011;1347;42.122;24.746;2023-03-14T03:26:36;14.47;;;10.70;;
2674;SDS011;1347;42.122;24.746;2023-03-14T03:29:03;13.60;;;10.33;;
2674;SDS011;1347;42.122;24.746;2023-03-14T03:31:30;13.60;;;9.97;;
2674;SDS011;1347;42.122;24.746;2023-03-14T03:33:59;13.17;;;10.23;;
2674;SDS011;1347;42.122;24.746;2023-03-14T03:36:25;15.70;;;10.93;;
2674;SDS011;1347;42.122;24.746;2023-03-14T03:38:53;18.00;;;11.10;;
2674;SDS011;1347;42.122;24.746;2023-03-14T03:41:20;15.07;;;10.00;;
2674;SDS011;1347;42.122;24.746;2023-03-14T03:43:47;12.27;;;10.90;;
2674;SDS011;1347;42.122;24.746;2023-03-14T03:46:14;15.37;;;10.97;;
2674;SDS011;1347;42.122;24.746;2023-03-14T03:48:41;13.50;;;10.20;;
2674;SDS011;1347;42.122;24.746;2023-03-14T03:51:12;15.13;;;10.77;;
2674;SDS011;1347;42.122;24.746;2023-03-14T03:53:40;11.30;;;9.23;;
2674;SDS011;1347;42.122;24.746;2023-03-14T03:56:07;11.93;;;10.10;;
2674;SDS011;1347;42.122;24.746;2023-03-14T03:58:35;16.77;;;11.20;;
2674;SDS011;1347;42.122;24.746;2023-03-14T04:01:04;14.00;;;10.77;;
2674;SDS011;1347;42.122;24.746;2023-03-14T04:03:31;12.53;;;9.00;;
2674;SDS011;1347;42.122;24.746;2023-03-14T04:05:58;15.00;;;10.30;;
2674;SDS011;1347;42.122;24.746;2023-03-14T04:08:27;13.50;;;9.57;;
2674;SDS011;1347;42.122;24.746;2023-03-14T04:10:55;17.10;;;9.50;;
2674;SDS011;1347;42.122;24.746;2023-03-14T04:13:22;15.90;;;9.83;;
2674;SDS011;1347;42.122;24.746;2023-03-14T04:15:50;15.27;;;9.57;;
2674;SDS011;1347;42.122;24.746;2023-03-14T04:18:17;22.13;;;10.57;;
2674;SDS011;1347;42.122;24.746;2023-03-14T04:20:44;13.30;;;9.77;;
2674;SDS011;1347;42.122;24.746;2023-03-14T04:23:11;13.67;;;10.43;;
2674;SDS011;1347;42.122;24.746;2023-03-14T04:25:39;17.37;;;10.67;;
2674;SDS011;1347;42.122;24.746;2023-03-14T04:28:06;21.33;;;11.47;;
2674;SDS011;1347;42.122;24.746;2023-03-14T04:30:33;16.07;;;10.70;;
2674;SDS011;1347;42.122;24.746;2023-03-14T04:33:00;16.30;;;11.40;;
2674;SDS011;1347;42.122;24.746;2023-03-14T04:35:27;30.27;;;14.30;;
2674;SDS011;1347;42.122;24.746;2023-03-14T04:37:53;14.77;;;9.07;;
2674;SDS011;1347;42.122;24.746;2023-03-14T04:40:20;13.00;;;10.50;;
2674;SDS011;1347;42.122;24.746;2023-03-14T04:42:49;19.47;;;11.00;;
2674;SDS011;1347;42.122;24.746;2023-03-14T04:45:16;16.90;;;11.17;;
2674;SDS011;1347;42.122;24.746;2023-03-14T04:47:42;18.13;;;11.30;;
2674;SDS011;1347;42.122;24.746;2023-03-14T04:50:10;25.87;;;16.07;;
2674;SDS011;1347;42.122;24.746;2023-03-14T04:52:37;18.70;;;12.47;;
2674;SDS011;1347;42.122;24.746;2023-03-14T04:55:04;20.40;;;12.40;;
2674;SDS011;1347;42.122;24.746;2023-03-14T04:57:31;19.47;;;10.50;;
2674;SDS011;1347;42.122;24.746;2023-03-14T04:59:59;22.43;;;13.07;;
2674;SDS011;1347;42.122;24.746;2023-03-14T05:02:26;13.73;;;10.10;;
2674;SDS011;1347;42.122;24.746;2023-03-14T05:04:53;18.60;;;10.07;;
2674;SDS011;1347;42.122;24.746;2023-03-14T05:07:20;16.50;;;10.90;;
2674;SDS011;1347;42.122;24.746;2023-03-14T05:09:47;14.70;;;10.27;;
2674;SDS011;1347;42.122;24.746;2023-03-14T05:12:14;31.33;;;10.10;;
2674;SDS011;1347;42.122;24.746;2023-03-14T05:14:41;15.77;;;9.27;;
2674;SDS011;1347;42.122;24.746;2023-03-14T05:17:09;13.17;;;9.80;;
2674;SDS011;1347;42.122;24.746;2023-03-14T05:19:36;17.07;;;10.87;;
2674;SDS011;1347;42.122;24.746;2023-03-14T05:22:03;19.90;;;13.30;;
2674;SDS011;1347;42.122;24.746;2023-03-14T05:24:30;25.67;;;13.00;;
2674;SDS011;1347;42.122;24.746;2023-03-14T05:26:57;22.33;;;13.47;;
2674;SDS011;1347;42.122;24.746;2023-03-14T05:29:24;23.93;;;12.80;;
2674;SDS011;1347;42.122;24.746;2023-03-14T05:31:50;23.80;;;14.07;;
2674;SDS011;1347;42.122;24.746;2023-03-14T05:34:19;23.83;;;14.07;;
2674;SDS011;1347;42.122;24.746;2023-03-14T05:36:46;22.10;;;15.27;;
2674;SDS011;1347;42.122;24.746;2023-03-14T05:39:13;31.80;;;13.87;;
2674;SDS011;1347;42.122;24.746;2023-03-14T05:41:40;32.20;;;14.40;;
2674;SDS011;1347;42.122;24.746;2023-03-14T05:44:06;23.93;;;15.10;;
2674;SDS011;1347;42.122;24.746;2023-03-14T05:46:33;26.23;;;15.70;;
2674;SDS011;1347;42.122;24.746;2023-03-14T05:49:00;23.10;;;15.50;;
2674;SDS011;1347;42.122;24.746;2023-03-14T05:51:28;20.10;;;14.57;;
2674;SDS011;1347;42.122;24.746;2023-03-14T05:53:55;20.37;;;14.70;;
2674;SDS011;1347;42.122;24.746;2023-03-14T05:56:22;30.37;;;13.93;;
2674;SDS011;1347;42.122;24.746;2023-03-14T05:58:49;25.00;;;16.50;;
2674;SDS011;1347;42.122;24.746;2023-03-14T06:01:16;23.90;;;17.13;;
2674;SDS011;1347;42.122;24.746;2023-03-14T06:03:43;20.37;;;14.27;;
2674;SDS011;1347;42.122;24.746;2023-03-14T06:06:10;21.30;;;14.60;;
2674;SDS011;1347;42.122;24.746;2023-03-14T06:08:38;26.40;;;16.17;;
2674;SDS011;1347;42.122;24.746;2023-03-14T06:11:05;24.50;;;16.70;;
2674;SDS011;1347;42.122;24.746;2023-03-14T06:13:32;31.87;;;16.43;;
2674;SDS011;1347;42.122;24.746;2023-03-14T06:15:59;36.50;;;18.17;;
2674;SDS011;1347;42.122;24.746;2023-03-14T06:18:26;27.50;;;18.77;;
2674;SDS011;1347;42.122;24.746;2023-03-14T06:20:53;28.33;;;18.60;;
2674;SDS011;1347;42.122;24.746;2023-03-14T06:23:21;19.73;;;16.67;;
2674;SDS011;1347;42.122;24.746;2023-03-14T06:25:49;27.37;;;19.63;;
2674;SDS011;1347;42.122;24.746;2023-03-14T06:28:16;29.73;;;18.27;;
2674;SDS011;1347;42.122;24.746;2023-03-14T06:30:43;34.67;;;18.67;;
2674;SDS011;1347;42.122;24.746;2023-03-14T06:33:10;28.87;;;22.60;;
2674;SDS011;1347;42.122;24.746;2023-03-14T06:35:37;41.47;;;27.07;;
2674;SDS011;1347;42.122;24.746;2023-03-14T06:38:04;35.00;;;21.80;;
2674;SDS011;1347;42.122;24.746;2023-03-14T06:40:31;27.20;;;20.40;;
2674;SDS011;1347;42.122;24.746;2023-03-14T06:42:59;27.63;;;19.67;;
2674;SDS011;1347;42.122;24.746;2023-03-14T06:45:26;29.80;;;19.33;;
2674;SDS011;1347;42.122;24.746;2023-03-14T06:47:53;34.83;;;19.60;;
2674;SDS011;1347;42.122;24.746;2023-03-14T06:50:20;27.73;;;17.87;;
2674;SDS011;1347;42.122;24.746;2023-03-14T06:52:48;25.33;;;16.73;;
2674;SDS011;1347;42.122;24.746;2023-03-14T06:55:15;24.20;;;20.00;;
2674;SDS011;1347;42.122;24.746;2023-03-14T06:57:42;26.30;;;17.47;;
2674;SDS011;1347;42.122;24.746;2023-03-14T07:00:12;28.10;;;16.60;;
2674;SDS011;1347;42.122;24.746;2023-03-14T07:02:40;15.93;;;14.30;;
2674;SDS011;1347;42.122;24.746;2023-03-14T07:05:07;24.03;;;16.23;;
2674;SDS011;1347;42.122;24.746;2023-03-14T07:07:35;20.70;;;17.83;;
2674;SDS011;1347;42.122;24.746;2023-03-14T07:10:02;19.70;;;15.83;;
2674;SDS011;1347;42.122;24.746;2023-03-14T07:12:29;20.17;;;17.10;;
2674;SDS011;1347;42.122;24.746;2023-03-14T07:14:56;21.67;;;18.57;;
2674;SDS011;1347;42.122;24.746;2023-03-14T07:17:25;19.73;;;15.63;;
2674;SDS011;1347;42.122;24.746;2023-03-14T07:19:52;17.00;;;14.13;;
2674;SDS011;1347;42.122;24.746;2023-03-14T07:22:18;14.87;;;12.97;;
2674;SDS011;1347;42.122;24.746;2023-03-14T07:24:45;18.60;;;12.27;;
2674;SDS011;1347;42.122;24.746;2023-03-14T07:27:12;13.27;;;11.87;;
2674;SDS011;1347;42.122;24.746;2023-03-14T07:29:39;16.63;;;12.97;;
2674;SDS011;1347;42.122;24.746;2023-03-14T07:32:06;14.50;;;12.83;;
2674;SDS011;1347;42.122;24.746;2023-03-14T07:34:35;15.73;;;14.20;;
2674;SDS011;1347;42.122;24.746;2023-03-14T07:37:02;17.80;;;13.77;;
2674;SDS011;1347;42.122;24.746;2023-03-14T07:39:30;14.93;;;12.60;;
2674;SDS011;1347;42.122;24.746;2023-03-14T07:41:57;16.47;;;12.37;;
2674;SDS011;1347;42.122;24.746;2023-03-14T07:44:24;24.53;;;13.80;;
2674;SDS011;1347;42.122;24.746;2023-03-14T07:46:51;15.20;;;13.60;;
2674;SDS011;1347;42.122;24.746;2023-03-14T07:49:17;18.43;;;14.70;;
2674;SDS011;1347;42.122;24.746;2023-03-14T07:51:48;24.07;;;13.30;;
2674;SDS011;1347;42.122;24.746;2023-03-14T07:54:15;15.73;;;13.17;;
2674;SDS011;1347;42.122;24.746;2023-03-14T07:56:42;15.30;;;13.70;;
2674;SDS011;1347;42.122;24.746;2023-03-14T07:59:09;15.67;;;14.00;;
2674;SDS011;1347;42.122;24.746;2023-03-14T08:01:36;18.87;;;13.37;;
2674;SDS011;1347;42.122;24.746;2023-03-14T08:04:03;15.47;;;14.00;;
2674;SDS011;1347;42.122;24.746;2023-03-14T08:06:30;18.03;;;14.63;;
2674;SDS011;1347;42.122;24.746;2023-03-14T08:08:58;15.63;;;13.93;;
2674;SDS011;1347;42.122;24.746;2023-03-14T08:11:25;17.43;;;11.97;;
2674;SDS011;1347;42.122;24.746;2023-03-14T08:13:52;17.80;;;16.00;;
2674;SDS011;1347;42.122;24.746;2023-03-14T08:16:19;22.10;;;19.77;;
2674;SDS011;1347;42.122;24.746;2023-03-14T08:18:46;14.70;;;13.23;;
2674;SDS011;1347;42.122;24.746;2023-03-14T08:21:13;13.67;;;12.43;;
2674;SDS011;1347;42.122;24.746;2023-03-14T08:23:40;17.50;;;13.63;;
2674;SDS011;1347;42.122;24.746;2023-03-14T08:26:08;15.20;;;13.03;;
2674;SDS011;1347;42.122;24.746;2023-03-14T08:28:35;15.17;;;13.60;;
2674;SDS011;1347;42.122;24.746;2023-03-14T08:31:02;16.33;;;13.60;;
2674;SDS011;1347;42.122;24.746;2023-03-14T08:33:30;13.67;;;12.23;;
2674;SDS011;1347;42.122;24.746;2023-03-14T08:35:57;13.83;;;12.10;;
2674;SDS011;1347;42.122;24.746;2023-03-14T08:38:26;15.33;;;13.80;;
2674;SDS011;1347;42.122;24.746;2023-03-14T08:40:56;14.47;;;13.07;;
2674;SDS011;1347;42.122;24.746;2023-03-14T08:43:26;12.35;;;10.75;;
2674;SDS011;1347;42.122;24.746;2023-03-14T08:45:53;15.63;;;12.60;;
2674;SDS011;1347;42.122;24.746;2023-03-14T08:48:20;13.17;;;11.80;;
2674;SDS011;1347;42.122;24.746;2023-03-14T08:50:47;14.77;;;12.70;;
2674;SDS011;1347;42.122;24.746;2023-03-14T08:53:14;15.20;;;12.80;;
2674;SDS011;1347;42.122;24.746;2023-03-14T08:55:41;12.93;;;11.60;;
2674;SDS011;1347;42.122;24.746;2023-03-14T08:58:08;14.27;;;11.10;;
2674;SDS011;1347;42.122;24.746;2023-03-14T09:00:36;11.87;;;10.77;;
2674;SDS011;1347;42.122;24.746;2023-03-14T09:03:03;13.40;;;12.03;;
2674;SDS011;1347;42.122;24.746;2023-03-14T09:05:32;11.87;;;10.63;;
2674;SDS011;1347;42.122;24.746;2023-03-14T09:07:59;10.37;;;9.37;;
2674;SDS011;1347;42.122;24.746;2023-03-14T09:10:26;9.97;;;9.03;;
2674;SDS011;1347;42.122;24.746;2023-03-14T09:12:53;10.37;;;9.30;;
2674;SDS011;1347;42.122;24.746;2023-03-14T09:15:20;10.57;;;9.57;;
2674;SDS011;1347;42.122;24.746;2023-03-14T09:17:48;10.33;;;9.17;;
2674;SDS011;1347;42.122;24.746;2023-03-14T09:20:15;10.60;;;9.23;;
2674;SDS011;1347;42.122;24.746;2023-03-14T09:22:42;12.53;;;9.80;;
2674;SDS011;1347;42.122;24.746;2023-03-14T09:25:10;10.23;;;7.90;;
2674;SDS011;1347;42.122;24.746;2023-03-14T09:27:37;11.00;;;8.70;;
2674;SDS011;1347;42.122;24.746;2023-03-14T09:30:04;8.80;;;7.93;;
2674;SDS011;1347;42.122;24.746;2023-03-14T09:32:31;9.47;;;8.57;;
2674;SDS011;1347;42.122;24.746;2023-03-14T09:34:59;8.70;;;7.10;;
2674;SDS011;1347;42.122;24.746;2023-03-14T09:37:26;9.37;;;8.17;;
2674;SDS011;1347;42.122;24.746;2023-03-14T09:39:53;8.90;;;8.10;;
2674;SDS011;1347;42.122;24.746;2023-03-14T09:42:21;11.30;;;8.60;;
2674;SDS011;1347;42.122;24.746;2023-03-14T09:44:53;9.10;;;8.17;;
2674;SDS011;1347;42.122;24.746;2023-03-14T09:47:22;10.33;;;8.40;;
2674;SDS011;1347;42.122;24.746;2023-03-14T09:49:50;12.07;;;10.57;;
2674;SDS011;1347;42.122;24.746;2023-03-14T09:52:19;10.53;;;9.60;;
2674;SDS011;1347;42.122;24.746;2023-03-14T09:54:51;10.13;;;9.13;;
2674;SDS011;1347;42.122;24.746;2023-03-14T09:57:21;20.93;;;15.97;;
2674;SDS011;1347;42.122;24.746;2023-03-14T09:59:51;12.60;;;10.73;;
2674;SDS011;1347;42.122;24.746;2023-03-14T10:02:21;12.10;;;11.00;;
2674;SDS011;1347;42.122;24.746;2023-03-14T10:04:50;12.07;;;10.98;;
2674;SDS011;1347;42.122;24.746;2023-03-14T10:07:21;14.53;;;12.07;;
2674;SDS011;1347;42.122;24.746;2023-03-14T10:09:53;9.80;;;8.90;;
2674;SDS011;1347;42.122;24.746;2023-03-14T10:12:29;10.20;;;9.23;;
2674;SDS011;1347;42.122;24.746;2023-03-14T10:14:57;10.90;;;9.80;;
2674;SDS011;1347;42.122;24.746;2023-03-14T10:17:29;9.93;;;8.90;;
2674;SDS011;1347;42.122;24.746;2023-03-14T10:20:04;10.93;;;8.93;;
2674;SDS011;1347;42.122;24.746;2023-03-14T10:22:33;9.10;;;8.30;;
2674;SDS011;1347;42.122;24.746;2023-03-14T10:25:02;10.27;;;8.80;;
2674;SDS011;1347;42.122;24.746;2023-03-14T10:27:32;8.07;;;7.27;;
2674;SDS011;1347;42.122;24.746;2023-03-14T10:30:02;9.60;;;8.70;;
2674;SDS011;1347;42.122;24.746;2023-03-14T10:32:33;8.87;;;8.03;;
2674;SDS011;1347;42.122;24.746;2023-03-14T10:35:07;9.47;;;8.53;;
2674;SDS011;1347;42.122;24.746;2023-03-14T10:37:49;12.63;;;7.90;;
2674;SDS011;1347;42.122;24.746;2023-03-14T10:40:20;9.73;;;8.93;;
2674;SDS011;1347;42.122;24.746;2023-03-14T10:42:53;9.30;;;8.37;;
2674;SDS011;1347;42.122;24.746;2023-03-14T10:48:18;8.07;;;7.37;;
2674;SDS011;1347;42.122;24.746;2023-03-14T10:50:53;9.53;;;8.63;;
2674;SDS011;1347;42.122;24.746;2023-03-14T10:53:24;8.30;;;7.50;;
2674;SDS011;1347;42.122;24.746;2023-03-14T10:55:51;10.80;;;9.07;;
2674;SDS011;1347;42.122;24.746;2023-03-14T10:58:20;8.90;;;7.90;;
2674;SDS011;1347;42.122;24.746;2023-03-14T11:00:50;9.93;;;7.60;;
2674;SDS011;1347;42.122;24.746;2023-03-14T11:03:23;11.37;;;8.77;;
2674;SDS011;1347;42.122;24.746;2023-03-14T11:05:53;10.97;;;8.70;;
2674;SDS011;1347;42.122;24.746;2023-03-14T11:08:25;11.43;;;8.17;;
2674;SDS011;1347;42.122;24.746;2023-03-14T11:11:02;8.60;;;7.80;;
2674;SDS011;1347;42.122;24.746;2023-03-14T11:13:38;8.00;;;6.77;;
2674;SDS011;1347;42.122;24.746;2023-03-14T11:16:13;8.30;;;7.30;;
2674;SDS011;1347;42.122;24.746;2023-03-14T11:18:53;9.63;;;6.97;;
2674;SDS011;1347;42.122;24.746;2023-03-14T11:21:31;9.03;;;6.60;;
2674;SDS011;1347;42.122;24.746;2023-03-14T11:24:10;7.40;;;6.70;;
2674;SDS011;1347;42.122;24.746;2023-03-14T11:26:48;8.47;;;6.37;;
2674;SDS011;1347;42.122;24.746;2023-03-14T11:29:21;10.20;;;5.90;;
2674;SDS011;1347;42.122;24.746;2023-03-14T11:31:54;8.97;;;6.53;;
2674;SDS011;1347;42.122;24.746;2023-03-14T11:34:27;10.30;;;6.37;;
2674;SDS011;1347;42.122;24.746;2023-03-14T11:36:56;6.10;;;5.50;;
2674;SDS011;1347;42.122;24.746;2023-03-14T11:39:32;6.13;;;5.53;;
2674;SDS011;1347;42.122;24.746;2023-03-14T11:42:04;6.03;;;5.43;;
2674;SDS011;1347;42.122;24.746;2023-03-14T11:44:39;6.30;;;5.70;;
2674;SDS011;1347;42.122;24.746;2023-03-14T11:47:08;7.70;;;6.17;;
2674;SDS011;1347;42.122;24.746;2023-03-14T11:49:40;14.20;;;7.63;;
2674;SDS011;1347;42.122;24.746;2023-03-14T11:52:13;11.60;;;6.93;;
2674;SDS011;1347;42.122;24.746;2023-03-14T11:54:47;7.40;;;6.70;;
2674;SDS011;1347;42.122;24.746;2023-03-14T11:57:19;6.40;;;5.67;;
2674;SDS011;1347;42.122;24.746;2023-03-14T11:59:49;7.43;;;6.67;;
2674;SDS011;1347;42.122;24.746;2023-03-14T12:02:21;7.77;;;6.43;;
2674;SDS011;1347;42.122;24.746;2023-03-14T12:05:04;11.70;;;6.87;;
2674;SDS011;1347;42.122;24.746;2023-03-14T12:08:04;7.67;;;6.30;;
2674;SDS011;1347;42.122;24.746;2023-03-14T12:11:01;6.57;;;5.70;;
2674;SDS011;1347;42.122;24.746;2023-03-14T12:13:32;10.83;;;6.40;;
2674;SDS011;1347;42.122;24.746;2023-03-14T12:16:04;11.80;;;6.03;;
2674;SDS011;1347;42.122;24.746;2023-03-14T12:18:33;7.83;;;6.10;;
2674;SDS011;1347;42.122;24.746;2023-03-14T12:21:04;11.37;;;6.13;;
2674;SDS011;1347;42.122;24.746;2023-03-14T12:23:36;11.53;;;7.17;;
2674;SDS011;1347;42.122;24.746;2023-03-14T12:26:12;7.27;;;5.77;;
2674;SDS011;1347;42.122;24.746;2023-03-14T12:28:41;7.77;;;6.33;;
2674;SDS011;1347;42.122;24.746;2023-03-14T12:34:03;7.63;;;6.70;;
2674;SDS011;1347;42.122;24.746;2023-03-14T12:36:52;8.40;;;7.53;;
2674;SDS011;1347;42.122;24.746;2023-03-14T12:39:29;10.50;;;7.00;;
2674;SDS011;1347;42.122;24.746;2023-03-14T12:42:04;8.77;;;7.33;;
2674;SDS011;1347;42.122;24.746;2023-03-14T12:44:39;7.43;;;6.73;;
2674;SDS011;1347;42.122;24.746;2023-03-14T12:53:12;7.27;;;6.60;;
2674;SDS011;1347;42.122;24.746;2023-03-14T12:55:57;12.10;;;7.00;;
2674;SDS011;1347;42.122;24.746;2023-03-14T12:58:31;12.07;;;6.30;;
2674;SDS011;1347;42.122;24.746;2023-03-14T13:01:03;6.17;;;5.57;;
2674;SDS011;1347;42.122;24.746;2023-03-14T13:03:39;8.20;;;5.80;;
2674;SDS011;1347;42.122;24.746;2023-03-14T13:06:11;9.13;;;7.37;;
2674;SDS011;1347;42.122;24.746;2023-03-14T13:08:39;8.50;;;6.00;;
2674;SDS011;1347;42.122;24.746;2023-03-14T13:11:08;6.90;;;5.97;;
2674;SDS011;1347;42.122;24.746;2023-03-14T13:13:42;7.07;;;6.37;;
2674;SDS011;1347;42.122;24.746;2023-03-14T13:16:15;6.93;;;6.17;;
2674;SDS011;1347;42.122;24.746;2023-03-14T13:18:44;7.70;;;7.00;;
2674;SDS011;1347;42.122;24.746;2023-03-14T13:21:13;6.33;;;5.83;;
2674;SDS011;1347;42.122;24.746;2023-03-14T13:23:41;7.43;;;6.73;;
2674;SDS011;1347;42.122;24.746;2023-03-14T13:26:21;6.97;;;6.37;;
2674;SDS011;1347;42.122;24.746;2023-03-14T13:28:52;8.20;;;7.37;;
2674;SDS011;1347;42.122;24.746;2023-03-14T13:31:21;9.47;;;6.63;;
2674;SDS011;1347;42.122;24.746;2023-03-14T13:33:56;12.87;;;6.00;;
2674;SDS011;1347;42.122;24.746;2023-03-14T13:36:27;7.50;;;6.80;;
2674;SDS011;1347;42.122;24.746;2023-03-14T13:38:57;9.80;;;7.40;;
2674;SDS011;1347;42.122;24.746;2023-03-14T13:41:26;14.03;;;10.93;;
2674;SDS011;1347;42.122;24.746;2023-03-14T13:43:58;7.70;;;6.10;;
2674;SDS011;1347;42.122;24.746;2023-03-14T13:46:29;6.87;;;6.17;;
2674;SDS011;1347;42.122;24.746;2023-03-14T13:49:01;8.43;;;6.70;;
2674;SDS011;1347;42.122;24.746;2023-03-14T13:51:30;7.20;;;6.37;;
2674;SDS011;1347;42.122;24.746;2023-03-14T13:53:59;10.47;;;6.50;;
2674;SDS011;1347;42.122;24.746;2023-03-14T13:56:28;6.43;;;5.83;;
2674;SDS011;1347;42.122;24.746;2023-03-14T13:58:58;6.90;;;6.20;;
2674;SDS011;1347;42.122;24.746;2023-03-14T14:01:26;12.10;;;5.97;;
2674;SDS011;1347;42.122;24.746;2023-03-14T14:03:56;5.93;;;5.20;;
2674;SDS011;1347;42.122;24.746;2023-03-14T14:06:28;7.60;;;5.93;;
2674;SDS011;1347;42.122;24.746;2023-03-14T14:08:58;7.30;;;6.37;;
2674;SDS011;1347;42.122;24.746;2023-03-14T14:11:33;9.90;;;6.47;;
2674;SDS011;1347;42.122;24.746;2023-03-14T14:14:08;6.30;;;5.70;;
2674;SDS011;1347;42.122;24.746;2023-03-14T14:16:39;8.37;;;5.87;;
2674;SDS011;1347;42.122;24.746;2023-03-14T14:19:09;7.73;;;5.23;;
2674;SDS011;1347;42.122;24.746;2023-03-14T14:21:36;5.50;;;5.00;;
2674;SDS011;1347;42.122;24.746;2023-03-14T14:24:04;7.73;;;5.87;;
2674;SDS011;1347;42.122;24.746;2023-03-14T14:26:32;6.67;;;4.83;;
2674;SDS011;1347;42.122;24.746;2023-03-14T14:28:59;8.77;;;5.30;;
2674;SDS011;1347;42.122;24.746;2023-03-14T14:31:30;6.77;;;5.27;;
2674;SDS011;1347;42.122;24.746;2023-03-14T14:33:58;7.30;;;5.67;;
2674;SDS011;1347;42.122;24.746;2023-03-14T14:36:27;7.00;;;6.00;;
2674;SDS011;1347;42.122;24.746;2023-03-14T14:39:00;10.53;;;5.53;;
2674;SDS011;1347;42.122;24.746;2023-03-14T14:41:31;6.13;;;5.53;;
2674;SDS011;1347;42.122;24.746;2023-03-14T14:44:00;8.27;;;6.87;;
2674;SDS011;1347;42.122;24.746;2023-03-14T14:46:31;6.97;;;6.30;;
2674;SDS011;1347;42.122;24.746;2023-03-14T14:49:02;8.10;;;5.97;;
2674;SDS011;1347;42.122;24.746;2023-03-14T14:51:33;6.70;;;6.10;;
2674;SDS011;1347;42.122;24.746;2023-03-14T14:54:12;9.10;;;6.10;;
2674;SDS011;1347;42.122;24.746;2023-03-14T14:56:45;7.70;;;5.73;;
2674;SDS011;1347;42.122;24.746;2023-03-14T14:59:19;6.80;;;5.90;;
2674;SDS011;1347;42.122;24.746;2023-03-14T15:01:50;6.50;;;5.87;;
2674;SDS011;1347;42.122;24.746;2023-03-14T15:04:22;7.63;;;6.40;;
2674;SDS011;1347;42.122;24.746;2023-03-14T15:06:49;10.30;;;6.77;;
2674;SDS011;1347;42.122;24.746;2023-03-14T15:09:19;9.77;;;6.73;;